Time;durP1;ratioP1;P1;durP2;ratioP2;P2;SDS_P1;SDS_P2;PMS_P1;PMS_P2;Temp;Humidity;BMP_temperature;BMP_pressure;BME280_temperature;BME280_humidity;BME280_pressure;Samples;Min_cycle;Max_cycle;Signal;HPM_P1;HPM_P2
2023/05/05 00:00:34;;;;;;;25.00;18.08;;;;;;;-140.66;100.00;55571.53;5101066;28;20051;-75
2023/05/05 00:03:21;;;;;;;31.42;18.27;;;;;;;-140.66;100.00;55571.53;5101735;28;20030;-74
2023/05/05 00:06:07;;;;;;;30.10;18.38;;;;;;;-140.66;100.00;55571.53;5101484;28;20023;-74
2023/05/05 00:08:53;;;;;;;25.98;17.17;;;;;;;-140.66;100.00;55571.53;5116079;28;20097;-73
2023/05/05 00:11:38;;;;;;;24.55;16.85;;;;;;;-140.66;100.00;55571.53;5115098;28;20200;-74
2023/05/05 00:14:24;;;;;;;26.58;17.85;;;;;;;-140.66;100.00;55571.53;5115371;28;20035;-74
2023/05/05 00:17:10;;;;;;;24.45;17.58;;;;;;;-140.66;100.00;55571.53;5116245;28;20024;-74
2023/05/05 00:19:56;;;;;;;31.50;16.98;;;;;;;-140.66;100.00;55571.53;5101060;28;20389;-74
2023/05/05 00:22:41;;;;;;;27.23;16.48;;;;;;;-140.66;100.00;55571.53;5100995;28;20443;-74
2023/05/05 00:25:28;;;;;;;25.15;16.15;;;;;;;-140.66;100.00;55571.53;5115464;28;20107;-73
2023/05/05 00:28:13;;;;;;;25.88;17.08;;;;;;;-140.66;100.00;55571.53;5115065;28;20096;-74
2023/05/05 00:31:00;;;;;;;24.50;16.60;;;;;;;-140.66;100.00;55571.53;5114985;28;20039;-74
2023/05/05 00:33:46;;;;;;;25.33;16.55;;;;;;;-140.66;100.00;55571.53;5114810;28;20027;-74
2023/05/05 00:36:31;;;;;;;21.02;15.73;;;;;;;-140.66;100.00;55571.53;5114868;28;20039;-75
2023/05/05 00:39:17;;;;;;;23.58;16.20;;;;;;;-140.66;100.00;55571.53;5100708;28;20024;-74
2023/05/05 00:42:03;;;;;;;27.67;17.58;;;;;;;-140.66;100.00;55571.53;5115003;28;20023;-74
2023/05/05 00:44:49;;;;;;;22.60;14.90;;;;;;;-140.66;100.00;55571.53;5115691;28;20398;-75
2023/05/05 00:47:35;;;;;;;21.83;14.73;;;;;;;-140.66;100.00;55571.53;5115220;28;20107;-74
2023/05/05 00:50:26;;;;;;;22.75;14.63;;;;;;;-140.66;100.00;55571.53;5115326;28;20070;-75
2023/05/05 00:53:12;;;;;;;25.17;14.75;;;;;;;-140.66;100.00;55571.53;5115023;28;20038;-73
2023/05/05 00:55:58;;;;;;;19.52;14.85;;;;;;;-140.66;100.00;55571.53;5100723;28;20031;-73
2023/05/05 00:58:44;;;;;;;25.45;15.98;;;;;;;-140.66;100.00;55571.53;5114812;28;20038;-74
2023/05/05 01:01:30;;;;;;;22.40;14.55;;;;;;;-140.66;100.00;55571.53;5114429;28;20031;-74
2023/05/05 01:04:16;;;;;;;21.35;15.98;;;;;;;-140.66;100.00;55571.53;5115202;28;20102;-74
2023/05/05 01:07:37;;;;;;;21.75;14.40;;;;;;;-140.66;100.00;55571.53;5115033;28;20035;-74
2023/05/05 01:10:39;;;;;;;22.25;15.20;;;;;;;-140.66;100.00;55571.53;5013223;28;20049;-74
2023/05/05 01:13:44;;;;;;;23.13;14.93;;;;;;;-140.66;100.00;55571.53;5114779;28;20024;-73
2023/05/05 01:16:33;;;;;;;22.98;15.10;;;;;;;-140.66;100.00;55571.53;5114295;28;20023;-73
2023/05/05 01:19:43;;;;;;;23.42;15.27;;;;;;;-140.66;100.00;55571.53;5100052;28;20051;-74
2023/05/05 01:22:38;;;;;;;24.40;14.38;;;;;;;-140.66;100.00;55571.53;5114842;28;20023;-74
2023/05/05 01:25:41;;;;;;;22.95;14.52;;;;;;;-140.66;100.00;55571.53;5115626;28;20107;-74
2023/05/05 01:28:47;;;;;;;19.58;13.45;;;;;;;-140.66;100.00;55571.53;5100100;28;20359;-74
2023/05/05 01:31:32;;;;;;;21.45;13.27;;;;;;;-140.66;100.00;55571.53;5099525;28;20447;-74
2023/05/05 01:34:25;;;;;;;19.77;13.13;;;;;;;-140.66;100.00;55571.53;5114605;28;20085;-74
2023/05/05 01:37:17;;;;;;;24.58;14.52;;;;;;;-140.66;100.00;55571.53;5114600;28;20188;-74
2023/05/05 01:40:06;;;;;;;25.40;14.20;;;;;;;-140.66;100.00;55571.53;5115662;28;20023;-73
2023/05/05 01:42:55;;;;;;;19.52;12.93;;;;;;;-140.66;100.00;55571.53;5113957;28;20023;-75
2023/05/05 01:45:43;;;;;;;24.02;14.27;;;;;;;-140.66;100.00;55571.53;5100062;28;20096;-74
2023/05/05 01:48:29;;;;;;;21.27;14.18;;;;;;;-140.66;100.00;55571.53;5115031;28;20439;-73
2023/05/05 01:51:18;;;;;;;25.13;14.13;;;;;;;-140.66;100.00;55571.53;5099620;28;20467;-75
2023/05/05 01:54:07;;;;;;;19.10;13.45;;;;;;;-140.66;100.00;55571.53;5099594;28;20333;-74
2023/05/05 01:56:56;;;;;;;26.70;14.88;;;;;;;-140.66;100.00;55571.53;5114355;28;20443;-74
2023/05/05 01:59:42;;;;;;;19.15;13.38;;;;;;;-140.66;100.00;55571.53;5099365;28;20435;-74
2023/05/05 02:02:29;;;;;;;20.98;13.85;;;;;;;-140.66;100.00;55571.53;5100158;28;20443;-73
2023/05/05 02:05:18;;;;;;;20.85;15.27;;;;;;;-140.66;100.00;55571.53;5114764;28;20093;-73
2023/05/05 02:08:05;;;;;;;21.65;14.38;;;;;;;-140.66;100.00;55571.53;5099829;28;20524;-74
2023/05/05 02:10:52;;;;;;;23.02;15.23;;;;;;;-140.66;100.00;55571.53;5099119;28;20048;-74
2023/05/05 02:13:41;;;;;;;23.80;16.00;;;;;;;-140.66;100.00;55571.53;5114447;28;20083;-74
2023/05/05 02:16:29;;;;;;;20.63;13.98;;;;;;;-140.66;100.00;55571.53;5114308;28;20051;-73
2023/05/05 02:19:18;;;;;;;26.45;15.65;;;;;;;-140.66;100.00;55571.53;5099296;28;20023;-73
2023/05/05 02:22:03;;;;;;;24.77;16.27;;;;;;;-140.66;100.00;55571.53;5114622;28;20458;-74
2023/05/05 02:24:49;;;;;;;22.20;15.20;;;;;;;-140.66;100.00;55571.53;5113438;28;20092;-74
2023/05/05 02:27:38;;;;;;;27.15;16.77;;;;;;;-140.66;100.00;55571.53;5114458;28;20111;-73
2023/05/05 02:30:25;;;;;;;24.73;16.42;;;;;;;-140.66;100.00;55571.53;5113899;28;20031;-73
2023/05/05 02:33:16;;;;;;;27.45;16.65;;;;;;;-140.66;100.00;55571.53;5113426;28;20393;-74
2023/05/05 02:36:20;;;;;;;21.27;15.60;;;;;;;-140.66;100.00;55571.53;5113615;28;20355;-74
2023/05/05 02:39:12;;;;;;;26.10;17.40;;;;;;;-140.66;100.00;55571.53;5114313;28;20031;-74
2023/05/05 02:42:02;;;;;;;24.35;15.65;;;;;;;-140.66;100.00;55571.53;5113621;28;20419;-73
2023/05/05 02:44:50;;;;;;;25.52;15.98;;;;;;;-140.66;100.00;55571.53;5113196;28;20032;-72
2023/05/05 02:47:37;;;;;;;26.77;16.67;;;;;;;-140.66;100.00;55571.53;5114164;28;20019;-73
2023/05/05 02:50:23;;;;;;;23.35;16.58;;;;;;;-140.66;100.00;55571.53;5102952;28;20035;-74
2023/05/05 02:53:08;;;;;;;23.48;16.50;;;;;;;-140.66;100.00;55571.53;5116966;28;20112;-73
2023/05/05 02:56:05;;;;;;;26.88;16.77;;;;;;;-140.66;100.00;55571.53;5116856;28;20470;-74
2023/05/05 02:58:58;;;;;;;28.25;16.98;;;;;;;-140.66;100.00;55571.53;5119059;28;20041;-74
2023/05/05 03:02:09;;;;;;;29.25;18.13;;;;;;;-140.66;100.00;55571.53;5117402;28;20027;-75
2023/05/05 03:05:03;;;;;;;32.78;17.40;;;;;;;-140.66;100.00;55571.53;5117605;28;20446;-73
2023/05/05 03:07:51;;;;;;;26.45;17.70;;;;;;;-140.66;100.00;55571.53;5117635;28;20034;-74
2023/05/05 03:10:46;;;;;;;25.67;16.45;;;;;;;-140.66;100.00;55571.53;5116996;28;20047;-73
2023/05/05 03:13:36;;;;;;;26.17;17.20;;;;;;;-140.66;100.00;55571.53;5101944;28;20031;-74
2023/05/05 03:16:24;;;;;;;27.10;17.92;;;;;;;-140.66;100.00;55571.53;5102501;28;20058;-74
2023/05/05 03:19:12;;;;;;;33.03;17.75;;;;;;;-140.66;100.00;55571.53;5102385;28;20098;-73
2023/05/05 03:21:58;;;;;;;25.60;18.05;;;;;;;-140.66;100.00;55571.53;5117962;28;20092;-74
2023/05/05 03:24:49;;;;;;;28.42;17.63;;;;;;;-140.66;100.00;55571.53;5117125;28;20034;-74
2023/05/05 03:27:34;;;;;;;30.70;16.65;;;;;;;-140.66;100.00;55571.53;5116483;28;20027;-74
2023/05/05 03:30:20;;;;;;;25.77;17.15;;;;;;;-140.66;100.00;55571.53;5116091;28;20124;-74
2023/05/05 03:33:10;;;;;;;28.70;18.25;;;;;;;-140.66;100.00;55571.53;5117137;28;20491;-75
2023/05/05 03:35:56;;;;;;;27.98;17.77;;;;;;;-140.66;100.00;55571.53;5117948;27;20470;-74
2023/05/05 03:38:41;;;;;;;26.40;17.75;;;;;;;-140.66;100.00;55571.53;5115855;28;20016;-75
2023/05/05 03:41:27;;;;;;;29.77;17.27;;;;;;;-140.66;100.00;55571.53;5115851;28;20019;-73
2023/05/05 03:44:13;;;;;;;26.70;16.88;;;;;;;-140.66;100.00;55571.53;5102035;28;20011;-74
2023/05/05 03:46:58;;;;;;;33.67;20.00;;;;;;;-140.66;100.00;55571.53;5101854;28;20028;-73
2023/05/05 03:49:44;;;;;;;34.13;22.63;;;;;;;-140.66;100.00;55571.53;5116521;28;20355;-74
2023/05/05 03:52:30;;;;;;;29.92;19.02;;;;;;;-140.66;100.00;55571.53;5116059;28;20439;-74
2023/05/05 03:55:16;;;;;;;28.35;19.02;;;;;;;-140.66;100.00;55571.53;5102071;28;20027;-74
2023/05/05 03:58:02;;;;;;;30.75;22.98;;;;;;;-140.66;100.00;55571.53;5116104;28;20400;-74
2023/05/05 04:00:47;;;;;;;34.25;22.60;;;;;;;-140.66;100.00;55571.53;5115780;28;20044;-74
2023/05/05 04:03:33;;;;;;;42.17;27.30;;;;;;;-140.66;100.00;55571.53;5115478;28;20015;-75
2023/05/05 04:06:19;;;;;;;40.88;26.73;;;;;;;-140.66;100.00;55571.53;5101472;28;20066;-74
2023/05/05 04:09:05;;;;;;;36.78;24.75;;;;;;;-140.66;100.00;55571.53;5102098;28;20027;-73
2023/05/05 04:11:51;;;;;;;41.00;25.73;;;;;;;-140.66;100.00;55571.53;5115492;28;20420;-72
2023/05/05 04:14:36;;;;;;;33.05;22.58;;;;;;;-140.66;100.00;55571.53;5115763;28;20350;-73
2023/05/05 04:17:22;;;;;;;31.63;20.30;;;;;;;-140.66;100.00;55571.53;5115911;28;20444;-73
2023/05/05 04:20:08;;;;;;;27.70;18.35;;;;;;;-140.66;100.00;55571.53;5115488;28;20454;-73
2023/05/05 04:22:54;;;;;;;32.22;18.95;;;;;;;-140.66;100.00;55571.53;5116001;28;20046;-72
2023/05/05 04:25:40;;;;;;;27.70;18.90;;;;;;;-140.66;100.00;55571.53;5119471;28;20032;-73
2023/05/05 04:28:26;;;;;;;24.20;17.65;;;;;;;-140.66;100.00;55571.53;5117616;28;20019;-74
2023/05/05 04:31:11;;;;;;;31.00;18.60;;;;;;;-140.66;100.00;55571.53;5115592;28;20038;-73
2023/05/05 04:33:57;;;;;;;25.38;16.95;;;;;;;-140.66;100.00;55571.53;5114962;28;20027;-71
2023/05/05 04:36:43;;;;;;;26.17;17.23;;;;;;;-140.66;100.00;55571.53;5101923;28;20039;-70
2023/05/05 04:39:28;;;;;;;27.98;17.63;;;;;;;-140.66;100.00;55571.53;5100670;28;20024;-70
2023/05/05 04:42:14;;;;;;;25.08;18.10;;;;;;;-140.66;100.00;55571.53;5115627;28;20466;-70
2023/05/05 04:45:00;;;;;;;28.25;18.00;;;;;;;-140.66;100.00;55571.53;5130233;28;20062;-69
2023/05/05 04:47:46;;;;;;;23.20;16.45;;;;;;;-140.66;100.00;55571.53;5114701;28;20038;-70
2023/05/05 04:50:31;;;;;;;28.60;16.73;;;;;;;-140.66;100.00;55571.53;5118568;28;20046;-71
2023/05/05 04:53:17;;;;;;;24.95;17.63;;;;;;;-140.66;100.00;55571.53;5114531;28;20360;-70
2023/05/05 04:56:03;;;;;;;27.60;18.15;;;;;;;-140.66;100.00;55571.53;5114649;28;20100;-72
2023/05/05 04:58:49;;;;;;;27.83;18.83;;;;;;;-140.66;100.00;55571.53;5100572;28;20035;-70
2023/05/05 05:01:35;;;;;;;26.23;17.17;;;;;;;-140.66;100.00;55571.53;5115399;28;20027;-70
2023/05/05 05:04:21;;;;;;;26.20;17.52;;;;;;;-140.66;100.00;55571.53;5115114;28;20050;-70
2023/05/05 05:07:06;;;;;;;28.38;19.10;;;;;;;-140.66;100.00;55571.53;5114551;28;20092;-71
2023/05/05 05:09:52;;;;;;;25.67;17.67;;;;;;;-140.66;100.00;55571.53;5114505;28;20434;-71
2023/05/05 05:12:38;;;;;;;27.23;18.30;;;;;;;-140.66;100.00;55571.53;5100028;28;20030;-71
2023/05/05 05:15:24;;;;;;;28.55;18.63;;;;;;;-140.66;100.00;55571.53;5114930;28;20106;-74
2023/05/05 05:18:10;;;;;;;25.27;16.98;;;;;;;-140.66;100.00;55571.53;5115010;28;20027;-75
2023/05/05 05:20:56;;;;;;;26.92;17.88;;;;;;;-140.66;100.00;55571.53;5115038;28;20401;-75
2023/05/05 05:23:41;;;;;;;27.17;17.25;;;;;;;-140.66;100.00;55571.53;5114737;28;20104;-77
2023/05/05 05:26:27;;;;;;;27.55;18.13;;;;;;;-140.66;100.00;55571.53;5115384;28;20023;-75
2023/05/05 05:29:13;;;;;;;24.85;17.42;;;;;;;-140.66;100.00;55571.53;5116040;28;20130;-78
2023/05/05 05:31:59;;;;;;;25.88;17.42;;;;;;;-140.66;100.00;55571.53;5100985;28;20027;-77
2023/05/05 05:34:45;;;;;;;25.88;16.52;;;;;;;-140.66;100.00;55571.53;5114554;28;20439;-75
2023/05/05 05:37:30;;;;;;;25.60;16.90;;;;;;;-140.66;100.00;55571.53;5115022;28;20107;-77
2023/05/05 05:40:16;;;;;;;28.65;18.42;;;;;;;-140.66;100.00;55571.53;5099829;28;20031;-76
2023/05/05 05:43:02;;;;;;;26.27;17.00;;;;;;;-140.66;100.00;55571.53;5115112;28;20147;-74
2023/05/05 05:45:48;;;;;;;23.05;16.00;;;;;;;-140.66;100.00;55571.53;5114741;28;20463;-77
2023/05/05 05:48:34;;;;;;;27.58;16.70;;;;;;;-140.66;100.00;55571.53;5114968;28;20363;-76
2023/05/05 05:51:20;;;;;;;30.88;17.30;;;;;;;-140.66;100.00;55571.53;5115586;28;20388;-76
2023/05/05 05:54:05;;;;;;;27.65;17.23;;;;;;;-140.66;100.00;55571.53;5100364;28;20137;-76
2023/05/05 05:56:51;;;;;;;24.40;15.55;;;;;;;-140.66;100.00;55571.53;5114792;28;20030;-75
2023/05/05 05:59:37;;;;;;;26.50;17.17;;;;;;;-140.66;100.00;55571.53;5114674;28;20106;-77
2023/05/05 06:02:25;;;;;;;24.58;16.42;;;;;;;-140.66;100.00;55571.53;5099527;28;20035;-76
2023/05/05 06:05:11;;;;;;;24.73;17.08;;;;;;;-140.66;100.00;55571.53;5115171;28;20023;-76
2023/05/05 06:07:57;;;;;;;27.58;16.58;;;;;;;-140.66;100.00;55571.53;5114750;28;20028;-76
2023/05/05 06:10:43;;;;;;;26.48;17.10;;;;;;;-140.66;100.00;55571.53;5099443;28;20051;-76
2023/05/05 06:13:28;;;;;;;22.98;15.48;;;;;;;-140.66;100.00;55571.53;5113680;28;20036;-76
2023/05/05 06:16:14;;;;;;;24.48;17.00;;;;;;;-140.66;100.00;55571.53;5099824;28;20031;-76
2023/05/05 06:19:00;;;;;;;25.55;17.50;;;;;;;-140.66;100.00;55571.53;5113852;28;20028;-75
2023/05/05 06:21:49;;;;;;;21.67;15.35;;;;;;;-140.66;100.00;55571.53;5115304;28;20031;-76
2023/05/05 06:24:35;;;;;;;23.05;15.82;;;;;;;-140.66;100.00;55571.53;5117758;28;20091;-76
2023/05/05 06:27:21;;;;;;;26.88;15.77;;;;;;;-140.66;100.00;55571.53;5117522;28;20031;-76
2023/05/05 06:30:08;;;;;;;31.77;17.80;;;;;;;-140.66;100.00;55571.53;5103902;28;20019;-76
2023/05/05 06:32:54;;;;;;;28.42;17.63;;;;;;;-140.66;100.00;55571.53;5103224;28;20066;-75
2023/05/05 06:35:39;;;;;;;23.92;16.33;;;;;;;-140.66;100.00;55571.53;5117536;28;20032;-75
2023/05/05 06:38:25;;;;;;;22.65;15.85;;;;;;;-140.66;100.00;55571.53;5117559;28;20496;-76
2023/05/05 06:41:11;;;;;;;24.27;15.63;;;;;;;-140.66;100.00;55571.53;5116916;28;20023;-76
2023/05/05 06:43:56;;;;;;;26.90;17.45;;;;;;;-140.66;100.00;55571.53;5117867;28;20102;-76
2023/05/05 06:46:42;;;;;;;26.00;16.67;;;;;;;-140.66;100.00;55571.53;5102701;28;20016;-76
2023/05/05 06:49:28;;;;;;;26.73;17.17;;;;;;;-140.66;100.00;55571.53;5117684;28;20379;-76
2023/05/05 06:52:14;;;;;;;23.70;16.50;;;;;;;-140.66;100.00;55571.53;5117258;28;20050;-75
2023/05/05 06:54:59;;;;;;;19.85;14.90;;;;;;;-140.66;100.00;55571.53;5117329;28;20356;-77
2023/05/05 06:57:45;;;;;;;27.63;15.68;;;;;;;-140.66;100.00;55571.53;5116848;28;20363;-77
2023/05/05 07:00:31;;;;;;;25.25;15.60;;;;;;;-140.66;100.00;55571.53;5116282;28;20038;-76
2023/05/05 07:03:17;;;;;;;21.38;14.90;;;;;;;-140.66;100.00;55571.53;5101637;28;20356;-77
2023/05/05 07:06:02;;;;;;;24.48;16.50;;;;;;;-140.66;100.00;55571.53;5117008;28;20059;-76
2023/05/05 07:08:48;;;;;;;20.00;13.52;;;;;;;-140.66;100.00;55571.53;5117333;28;20451;-76
2023/05/05 07:11:34;;;;;;;20.10;13.65;;;;;;;-140.66;100.00;55571.53;5102019;28;20371;-76
2023/05/05 07:14:20;;;;;;;19.70;14.18;;;;;;;-140.66;100.00;55571.53;5116299;28;20340;-76
2023/05/05 07:17:05;;;;;;;21.38;14.60;;;;;;;-140.66;100.00;55571.53;5101887;28;20023;-76
2023/05/05 07:19:53;;;;;;;18.98;14.25;;;;;;;-140.66;100.00;55571.53;5102878;28;20443;-75
2023/05/05 07:22:39;;;;;;;23.33;15.60;;;;;;;-140.66;100.00;55571.53;5116634;28;20062;-76
2023/05/05 07:25:25;;;;;;;19.00;13.57;;;;;;;-140.66;100.00;55571.53;5116847;28;20112;-76
2023/05/05 07:28:11;;;;;;;21.10;13.82;;;;;;;-140.66;100.00;55571.53;5118355;27;20572;-75
2023/05/05 07:30:57;;;;;;;20.23;14.10;;;;;;;-140.66;100.00;55571.53;5116154;28;20400;-75
2023/05/05 07:33:42;;;;;;;22.45;13.27;;;;;;;-140.66;100.00;55571.53;5115883;28;20118;-75
2023/05/05 07:36:28;;;;;;;21.63;12.80;;;;;;;-140.66;100.00;55571.53;5116577;28;20032;-75
2023/05/05 07:39:14;;;;;;;17.25;13.40;;;;;;;-140.66;100.00;55571.53;5116718;28;20088;-76
2023/05/05 07:42:00;;;;;;;17.40;13.10;;;;;;;-140.66;100.00;55571.53;5102432;28;20055;-74
2023/05/05 07:44:46;;;;;;;17.48;12.27;;;;;;;-140.66;100.00;55571.53;5102070;28;20070;-74
2023/05/05 07:47:35;;;;;;;17.60;12.00;;;;;;;-140.66;100.00;55571.53;5101428;28;20027;-75
2023/05/05 07:50:20;;;;;;;16.30;10.93;;;;;;;-140.66;100.00;55571.53;5117300;28;20023;-74
2023/05/05 07:53:06;;;;;;;15.10;9.80;;;;;;;-140.66;100.00;55571.53;5115586;28;20363;-75
2023/05/05 07:55:52;;;;;;;13.48;9.98;;;;;;;-140.66;100.00;55571.53;5102332;28;20367;-76
2023/05/05 07:58:38;;;;;;;16.23;10.95;;;;;;;-140.66;100.00;55571.53;5116601;28;20031;-76
2023/05/05 08:01:23;;;;;;;15.50;11.15;;;;;;;-140.66;100.00;55571.53;5101516;28;20038;-77
2023/05/05 08:04:09;;;;;;;17.02;12.65;;;;;;;-140.66;100.00;55571.53;5116476;28;20038;-76
2023/05/05 08:06:55;;;;;;;16.85;12.57;;;;;;;-140.66;100.00;55571.53;5116770;28;20031;-76
2023/05/05 08:09:41;;;;;;;17.25;11.27;;;;;;;-140.66;100.00;55571.53;5100918;28;20043;-75
2023/05/05 08:12:26;;;;;;;20.33;12.00;;;;;;;-140.66;100.00;55571.53;5102120;28;20027;-76
2023/05/05 08:15:12;;;;;;;16.67;11.63;;;;;;;-140.66;100.00;55571.53;5100919;28;20359;-75
2023/05/05 08:17:58;;;;;;;18.17;12.20;;;;;;;-140.66;100.00;55571.53;5116605;28;20019;-75
2023/05/05 08:20:43;;;;;;;17.17;13.38;;;;;;;-140.66;100.00;55571.53;5101320;28;20483;-76
2023/05/05 08:23:30;;;;;;;16.33;11.65;;;;;;;-140.66;100.00;55571.53;5100793;28;20467;-76
2023/05/05 08:26:16;;;;;;;17.92;12.35;;;;;;;-140.66;100.00;55571.53;5100135;28;20035;-77
2023/05/05 08:29:01;;;;;;;19.27;11.95;;;;;;;-140.66;100.00;55571.53;5101047;28;20024;-76
2023/05/05 08:31:47;;;;;;;19.17;12.88;;;;;;;-140.66;100.00;55571.53;5116359;28;20103;-76
2023/05/05 08:34:33;;;;;;;20.50;14.27;;;;;;;-140.66;100.00;55571.53;5100014;28;20031;-76
2023/05/05 08:37:19;;;;;;;16.85;13.43;;;;;;;-140.66;100.00;55571.53;5115924;28;20020;-77
2023/05/05 08:40:05;;;;;;;16.63;12.75;;;;;;;-140.66;100.00;55571.53;5100613;28;20019;-76
2023/05/05 08:42:51;;;;;;;19.45;12.93;;;;;;;-140.66;100.00;55571.53;5115857;28;20088;-77
2023/05/05 08:45:40;;;;;;;18.15;13.38;;;;;;;-140.66;100.00;55571.53;5114664;28;20023;-77
2023/05/05 08:48:28;;;;;;;19.05;13.77;;;;;;;-140.66;100.00;55571.53;5100272;28;20038;-74
2023/05/05 08:51:17;;;;;;;17.83;13.00;;;;;;;-140.66;100.00;55571.53;5101217;28;20093;-76
2023/05/05 08:54:06;;;;;;;20.67;14.30;;;;;;;-140.66;100.00;55571.53;5114985;28;20024;-76
2023/05/05 08:56:53;;;;;;;18.25;12.30;;;;;;;-140.66;100.00;55571.53;5115432;28;20046;-75
2023/05/05 08:59:40;;;;;;;19.05;13.65;;;;;;;-140.66;100.00;55571.53;5115140;28;20487;-75
2023/05/05 09:02:28;;;;;;;18.85;13.30;;;;;;;-140.66;100.00;55571.53;5114473;28;20462;-73
2023/05/05 09:05:15;;;;;;;21.95;15.15;;;;;;;-140.66;100.00;55571.53;5114794;28;20035;-74
2023/05/05 09:08:00;;;;;;;21.73;13.80;;;;;;;-140.66;100.00;55571.53;5115251;28;20035;-75
2023/05/05 09:10:47;;;;;;;16.58;12.77;;;;;;;-140.66;100.00;55571.53;5113924;28;20051;-75
2023/05/05 09:13:33;;;;;;;18.05;13.50;;;;;;;-140.66;100.00;55571.53;5115702;28;20031;-75
2023/05/05 09:16:21;;;;;;;17.40;13.27;;;;;;;-140.66;100.00;55571.53;5100195;28;20058;-75
2023/05/05 09:19:07;;;;;;;16.80;12.70;;;;;;;-140.66;100.00;55571.53;5115069;28;20110;-75
2023/05/05 09:21:53;;;;;;;17.10;13.32;;;;;;;-140.66;100.00;55571.53;5100338;28;20557;-74
2023/05/05 09:24:53;;;;;;;20.05;13.98;;;;;;;-140.66;100.00;55571.53;5114046;28;20028;-75
2023/05/05 09:27:47;;;;;;;18.45;13.27;;;;;;;-140.66;100.00;55571.53;5115476;28;20024;-75
2023/05/05 09:30:34;;;;;;;15.52;12.30;;;;;;;-140.66;100.00;55571.53;5114705;28;20088;-75
2023/05/05 09:33:30;;;;;;;16.67;12.65;;;;;;;-140.66;100.00;55571.53;5099412;28;20046;-75
2023/05/05 09:36:15;;;;;;;15.68;11.70;;;;;;;-140.66;100.00;55571.53;5114689;28;20032;-76
2023/05/05 09:39:06;;;;;;;16.55;11.73;;;;;;;-140.66;100.00;55571.53;5114025;28;20102;-75
2023/05/05 09:41:51;;;;;;;18.48;12.30;;;;;;;-140.66;100.00;55571.53;5114221;28;20448;-74
2023/05/05 09:44:38;;;;;;;15.75;11.38;;;;;;;-140.66;100.00;55571.53;5113808;28;20035;-74
2023/05/05 09:47:36;;;;;;;15.45;12.02;;;;;;;-140.66;100.00;55571.53;5114089;28;20047;-75
2023/05/05 09:50:22;;;;;;;17.92;12.60;;;;;;;-140.66;100.00;55571.53;5114741;28;20027;-73
2023/05/05 09:53:09;;;;;;;17.88;10.30;;;;;;;-140.66;100.00;55571.53;5114407;28;20118;-74
2023/05/05 09:55:57;;;;;;;14.18;11.15;;;;;;;-140.66;100.00;55571.53;5114935;28;20027;-73
2023/05/05 09:58:42;;;;;;;15.85;11.18;;;;;;;-140.66;100.00;55571.53;5118920;28;20024;-73
2023/05/05 10:01:28;;;;;;;18.45;12.90;;;;;;;-140.66;100.00;55571.53;5118906;28;20090;-73
2023/05/05 10:04:28;;;;;;;15.43;11.98;;;;;;;-140.66;100.00;55571.53;5118456;28;20027;-73
2023/05/05 10:07:22;;;;;;;18.95;13.55;;;;;;;-140.66;100.00;55571.53;5103051;28;20042;-73
2023/05/05 10:10:13;;;;;;;16.15;13.50;;;;;;;-140.66;100.00;55571.53;5118662;28;20052;-72
2023/05/05 10:12:59;;;;;;;16.95;12.60;;;;;;;-140.66;100.00;55571.53;5103617;28;20507;-72
2023/05/05 10:15:48;;;;;;;14.07;11.02;;;;;;;-140.66;100.00;55571.53;5118520;28;20027;-73
2023/05/05 10:18:35;;;;;;;18.38;13.27;;;;;;;-140.66;100.00;55571.53;5117403;28;20444;-73
2023/05/05 10:21:23;;;;;;;16.67;12.63;;;;;;;-140.66;100.00;55571.53;5102882;28;20059;-73
2023/05/05 10:24:15;;;;;;;18.98;13.10;;;;;;;-140.66;100.00;55571.53;5102733;28;20290;-74
2023/05/05 10:27:06;;;;;;;18.33;11.98;;;;;;;-140.66;100.00;55571.53;5119360;27;20110;-73
2023/05/05 10:30:01;;;;;;;16.38;11.95;;;;;;;-140.66;100.00;55571.53;5103262;28;20034;-73
2023/05/05 10:32:49;;;;;;;14.75;11.77;;;;;;;-140.66;100.00;55571.53;5117896;28;20172;-73
2023/05/05 10:35:38;;;;;;;21.35;13.45;;;;;;;-140.66;100.00;55571.53;5118270;28;20038;-73
2023/05/05 10:38:27;;;;;;;19.77;11.90;;;;;;;-140.66;100.00;55571.53;5117659;28;20359;-72
2023/05/05 10:41:14;;;;;;;17.45;11.05;;;;;;;-140.66;100.00;55571.53;5102641;28;20360;-73
2023/05/05 10:44:01;;;;;;;19.70;12.05;;;;;;;-140.66;100.00;55571.53;5117256;28;20023;-73
2023/05/05 10:46:47;;;;;;;15.38;11.55;;;;;;;-140.66;100.00;55571.53;5102635;28;20034;-73
2023/05/05 10:49:46;;;;;;;14.05;10.98;;;;;;;-140.66;100.00;55571.53;5103104;28;20101;-73
2023/05/05 10:53:00;;;;;;;14.55;10.93;;;;;;;-140.66;100.00;55571.53;5102426;28;20038;-74
2023/05/05 10:56:16;;;;;;;17.27;12.00;;;;;;;-140.66;100.00;55571.53;5099553;28;20039;-73
2023/05/05 10:59:02;;;;;;;18.48;11.65;;;;;;;-140.66;100.00;55571.53;5117616;28;20038;-74
2023/05/05 11:01:49;;;;;;;12.23;9.85;;;;;;;-140.66;100.00;55571.53;5116972;28;20055;-74
2023/05/05 11:04:35;;;;;;;17.50;11.50;;;;;;;-140.66;100.00;55571.53;5116699;28;20102;-73
2023/05/05 11:07:22;;;;;;;13.18;9.73;;;;;;;-140.66;100.00;55571.53;5114716;28;20104;-73
2023/05/05 11:10:10;;;;;;;18.15;10.57;;;;;;;-140.66;100.00;55571.53;5115431;28;20083;-73
2023/05/05 11:12:58;;;;;;;15.70;10.48;;;;;;;-140.66;100.00;55571.53;5117244;28;20032;-74
2023/05/05 11:15:43;;;;;;;14.13;10.50;;;;;;;-140.66;100.00;55571.53;5117028;28;20093;-73
2023/05/05 11:18:35;;;;;;;11.63;9.90;;;;;;;-140.66;100.00;55571.53;5116762;28;20091;-72
2023/05/05 11:21:21;;;;;;;12.55;8.95;;;;;;;-140.66;100.00;55571.53;5116583;28;20447;-75
2023/05/05 11:24:41;;;;;;;13.95;9.27;;;;;;;-140.66;100.00;55571.53;5116567;28;20020;-73
2023/05/05 11:28:06;;;;;;;14.65;10.90;;;;;;;-140.66;100.00;55571.53;5083500;28;20420;-74
2023/05/05 11:30:55;;;;;;;14.25;10.57;;;;;;;-140.66;100.00;55571.53;5100911;28;20027;-74
2023/05/05 11:33:41;;;;;;;24.58;10.75;;;;;;;-140.66;100.00;55571.53;5116763;28;20039;-72
2023/05/05 11:36:38;;;;;;;14.95;10.30;;;;;;;-140.66;100.00;55571.53;5122970;28;20023;-73
2023/05/05 11:39:39;;;;;;;15.27;10.13;;;;;;;-140.66;100.00;55571.53;5117772;28;20035;-74
2023/05/05 11:42:25;;;;;;;15.27;10.57;;;;;;;-140.66;100.00;55571.53;5101211;28;20114;-73
2023/05/05 11:45:22;;;;;;;13.25;9.45;;;;;;;-140.66;100.00;55571.53;5116159;28;20023;-73
2023/05/05 11:48:27;;;;;;;18.10;10.23;;;;;;;-140.66;100.00;55571.53;5100646;28;20091;-73
2023/05/05 11:51:17;;;;;;;13.23;10.48;;;;;;;-140.66;100.00;55571.53;5116170;28;20410;-74
2023/05/05 11:54:03;;;;;;;15.18;10.10;;;;;;;-140.66;100.00;55571.53;5102406;28;20080;-74
2023/05/05 11:56:54;;;;;;;13.93;9.90;;;;;;;-140.66;100.00;55571.53;5116686;28;20352;-74
2023/05/05 11:59:52;;;;;;;14.70;10.10;;;;;;;-140.66;100.00;55571.53;5100907;28;20524;-74
2023/05/05 12:02:37;;;;;;;18.27;10.32;;;;;;;-140.66;100.00;55571.53;5129903;28;20048;-73
2023/05/05 12:05:23;;;;;;;16.40;11.82;;;;;;;-140.66;100.00;55571.53;5117515;28;20031;-74
2023/05/05 12:08:09;;;;;;;13.45;10.10;;;;;;;-140.66;100.00;55571.53;5116228;28;20039;-72
2023/05/05 12:11:07;;;;;;;15.40;11.50;;;;;;;-140.66;100.00;55571.53;5115414;28;20051;-73
2023/05/05 12:14:09;;;;;;;14.35;11.27;;;;;;;-140.66;100.00;55571.53;5115427;28;20360;-73
2023/05/05 12:17:05;;;;;;;16.02;10.98;;;;;;;-140.66;100.00;55571.53;5117592;28;20054;-73
2023/05/05 12:19:52;;;;;;;14.75;9.77;;;;;;;-140.66;100.00;55571.53;5115966;28;20455;-72
2023/05/05 12:22:39;;;;;;;20.02;11.38;;;;;;;-140.66;100.00;55571.53;5115660;28;20110;-73
2023/05/05 12:25:25;;;;;;;11.13;9.20;;;;;;;-140.66;100.00;55571.53;5114821;28;20023;-74
2023/05/05 12:28:11;;;;;;;12.60;9.90;;;;;;;-140.66;100.00;55571.53;5114374;28;20495;-73